Wilkie, Canada
Current Conditions -  °F | °C
As of 2:00 AM on Monday 26 Jan 2015 (Local Time) from CYQW Reporting Station
Few Clouds Few Clouds  
Wind Chill: 29°   Ceiling: Unl
Heat Index: 36°   Visibility: 9mi
Dew Point: 28°   Wind: 8mph
Humidity: 75%   Direction: 270°W
Pressure: 29.84"   Gusts: NA
Location:  52.42°N, 108.7°W
Report Text: CYQW 260800Z AUTO 27007KT 9SM FEW095 02/M02 A2984 RMK SLP125
Loading
Personal Weather Stations






























Interactive Weather Map New forecast layout! Learn more

10-Day Weather Forecast

Advertisements
Track Severe Weather on mobile